Time;durP1;ratioP1;P1;durP2;ratioP2;P2;SDS_P1;SDS_P2;PMS_P1;PMS_P2;Temp;Humidity;BMP_temperature;BMP_pressure;BME280_temperature;BME280_humidity;BME280_pressure;Samples;Min_cycle;Max_cycle;Signal;HPM_P1;HPM_P2
2022/05/07 00:01:45;;;;;;;18.10;11.32;;;;;;;;;;5043866;28;20085;-72
2022/05/07 00:04:11;;;;;;;17.07;11.20;;;;;;;;;;5050893;28;20079;-73
2022/05/07 00:06:36;;;;;;;20.70;11.27;;;;;;;;;;5044295;28;20277;-72
2022/05/07 00:09:02;;;;;;;24.27;12.02;;;;;;;;;;5050588;28;20037;-72
2022/05/07 00:11:27;;;;;;;17.50;11.15;;;;;;;;;;5040354;28;20041;-74
2022/05/07 00:13:53;;;;;;;19.42;11.57;;;;;;;;;;5031108;28;20048;-73
2022/05/07 00:19:02;;;;;;;21.70;11.45;;;;;;;;;;5047807;28;20648;-73
2022/05/07 00:21:28;;;;;;;18.83;11.10;;;;;;;;;;5049329;28;20029;-72
2022/05/07 00:23:53;;;;;;;17.70;11.32;;;;;;;;;;5043612;28;20071;-73
2022/05/07 00:26:19;;;;;;;20.98;11.52;;;;;;;;;;5038142;28;20049;-73
2022/05/07 00:28:46;;;;;;;17.77;11.77;;;;;;;;;;5029191;28;20044;-73
2022/05/07 00:31:12;;;;;;;16.65;11.02;;;;;;;;;;5051962;28;20442;-72
2022/05/07 00:33:37;;;;;;;17.13;11.15;;;;;;;;;;5043341;28;20079;-73
2022/05/07 00:36:03;;;;;;;17.83;11.57;;;;;;;;;;5026086;28;20045;-73
2022/05/07 00:38:28;;;;;;;17.38;11.30;;;;;;;;;;5050744;28;20273;-73
2022/05/07 00:40:53;;;;;;;18.58;10.57;;;;;;;;;;5049374;28;20037;-73
2022/05/07 00:43:19;;;;;;;15.68;10.50;;;;;;;;;;5045797;28;20072;-73
2022/05/07 00:45:47;;;;;;;15.82;9.90;;;;;;;;;;5048518;28;20044;-73
2022/05/07 00:48:13;;;;;;;15.93;10.10;;;;;;;;;;5031701;28;21753;-73
2022/05/07 00:53:23;;;;;;;16.05;10.32;;;;;;;;;;5074162;28;20009;-73
2022/05/07 00:55:48;;;;;;;15.57;9.93;;;;;;;;;;5071294;28;20037;-72
2022/05/07 00:58:14;;;;;;;14.25;9.95;;;;;;;;;;5073055;28;20041;-73
2022/05/07 01:00:39;;;;;;;15.85;9.93;;;;;;;;;;5067468;28;20032;-72
2022/05/07 01:03:04;;;;;;;17.92;9.95;;;;;;;;;;5065919;28;20043;-73
2022/05/07 01:05:31;;;;;;;17.23;9.43;;;;;;;;;;5060622;28;20043;-72
2022/05/07 01:07:56;;;;;;;16.67;10.35;;;;;;;;;;5048324;28;20290;-72
2022/05/07 01:10:22;;;;;;;17.05;10.50;;;;;;;;;;5073084;28;20092;-73
2022/05/07 01:12:48;;;;;;;16.67;10.32;;;;;;;;;;5050446;28;20040;-71
2022/05/07 01:15:13;;;;;;;15.43;10.15;;;;;;;;;;5060540;28;20025;-71
2022/05/07 01:17:38;;;;;;;14.65;9.98;;;;;;;;;;5049573;28;20112;-73
2022/05/07 01:20:08;;;;;;;15.57;9.98;;;;;;;;;;5054580;28;20047;-73
2022/05/07 01:22:34;;;;;;;15.05;9.85;;;;;;;;;;5052458;28;20025;-72
2022/05/07 01:24:59;;;;;;;15.68;9.85;;;;;;;;;;5044381;28;20408;-72
2022/05/07 01:27:24;;;;;;;18.77;10.20;;;;;;;;;;5045244;28;20037;-72
2022/05/07 01:29:50;;;;;;;13.60;10.03;;;;;;;;;;5048627;28;20931;-72
2022/05/07 01:32:15;;;;;;;14.30;9.40;;;;;;;;;;5034063;28;20036;-72
2022/05/07 01:34:40;;;;;;;14.23;8.80;;;;;;;;;;5052076;28;20353;-74
2022/05/07 01:37:06;;;;;;;16.33;10.10;;;;;;;;;;5038583;28;20518;-73
2022/05/07 01:39:31;;;;;;;15.10;9.88;;;;;;;12.79;nan;100950.53;5049098;28;20313;-73
2022/05/07 01:41:56;;;;;;;14.10;9.27;;;;;;;;;;5053518;28;20068;-72
2022/05/07 01:44:21;;;;;;;13.00;9.60;;;;;;;;;;5038438;28;20048;-71
2022/05/07 01:49:30;;;;;;;13.15;9.23;;;;;;;;;;5053131;28;20278;-73
2022/05/07 01:51:56;;;;;;;14.70;9.30;;;;;;;;;;5053010;28;20040;-73
2022/05/07 01:54:21;;;;;;;14.13;9.70;;;;;;;;;;5051361;28;20045;-73
2022/05/07 01:56:46;;;;;;;13.30;9.50;;;;;;;;;;5040744;28;20075;-72
2022/05/07 01:59:11;;;;;;;15.30;9.87;;;;;;;;;;5045739;28;20644;-72
2022/05/07 02:01:38;;;;;;;17.70;9.93;;;;;;;;;;5042439;28;20127;-72
2022/05/07 02:04:03;;;;;;;16.40;9.85;;;;;;;;;;5046721;28;20043;-72
2022/05/07 02:06:28;;;;;;;16.55;10.00;;;;;;;;;;5048732;28;20049;-71
2022/05/07 02:08:54;;;;;;;13.93;10.07;;;;;;;12.55;nan;100963.69;5052428;28;20086;-71
2022/05/07 02:11:20;;;;;;;19.20;9.80;;;;;;;;;;5038366;28;20041;-73
2022/05/07 02:13:45;;;;;;;16.90;10.25;;;;;;;;;;5048032;28;20071;-72
2022/05/07 02:16:10;;;;;;;21.33;9.90;;;;;;;;;;5049339;28;20045;-73
2022/05/07 02:18:36;;;;;;;18.50;10.03;;;;;;;;;;5052308;28;20274;-75
2022/05/07 02:21:02;;;;;;;17.00;10.52;;;;;;;;;;5047215;28;20043;-72
2022/05/07 02:23:27;;;;;;;16.92;10.30;;;;;;;;;;5040807;28;20547;-72
2022/05/07 02:25:52;;;;;;;14.18;9.77;;;;;;;;;;5047166;28;20124;-73
2022/05/07 02:28:18;;;;;;;15.13;9.50;;;;;;;;;;5049798;28;20045;-73
2022/05/07 02:30:43;;;;;;;18.33;10.57;;;;;;;;;;5058923;28;20089;-72
2022/05/07 02:33:08;;;;;;;15.43;10.17;;;;;;;;;;5059302;28;20060;-72
2022/05/07 02:35:33;;;;;;;19.47;10.40;;;;;;;;;;5033029;28;20269;-72
2022/05/07 02:37:59;;;;;;;16.90;9.98;;;;;;;;;;5037615;28;20375;-71
2022/05/07 02:40:24;;;;;;;16.35;10.20;;;;;;;;;;5042924;28;20041;-71
2022/05/07 02:42:49;;;;;;;20.93;11.17;;;;;;;;;;5030129;28;20029;-71
2022/05/07 02:45:15;;;;;;;14.55;9.85;;;;;;;;;;5049817;28;20766;-73
2022/05/07 02:47:41;;;;;;;15.80;10.13;;;;;;;;;;5049543;28;20495;-72
2022/05/07 02:50:08;;;;;;;16.48;9.65;;;;;;;;;;5052214;28;20048;-73
2022/05/07 02:52:33;;;;;;;21.20;9.55;;;;;;;;;;5047908;28;20037;-73
2022/05/07 02:54:59;;;;;;;21.08;9.95;;;;;;;;;;5046427;28;20040;-73
2022/05/07 02:57:24;;;;;;;24.85;10.68;;;;;;;;;;5043459;28;20045;-74
2022/05/07 02:59:50;;;;;;;17.03;10.63;;;;;;;;;;5046319;28;20048;-72
2022/05/07 03:02:15;;;;;;;16.52;9.52;;;;;;;;;;5047270;28;20343;-72
2022/05/07 03:04:40;;;;;;;15.60;9.87;;;;;;;;;;5051434;28;20048;-72
2022/05/07 03:07:06;;;;;;;17.13;10.38;;;;;;;;;;5047366;28;20309;-73
2022/05/07 03:09:31;;;;;;;26.20;10.27;;;;;;;;;;5049059;28;20045;-72
2022/05/07 03:11:56;;;;;;;28.20;10.23;;;;;;;;;;5046964;28;20029;-73
2022/05/07 03:14:21;;;;;;;19.23;9.57;;;;;;;;;;5040097;28;20065;-72
2022/05/07 03:16:48;;;;;;;17.93;10.13;;;;;;;;;;5032446;28;20286;-72
2022/05/07 03:19:14;;;;;;;13.70;9.18;;;;;;;;;;5040447;28;20290;-71
2022/05/07 03:21:39;;;;;;;17.30;10.00;;;;;;;;;;5044470;28;20037;-73
2022/05/07 03:24:04;;;;;;;18.73;9.13;;;;;;;;;;5049774;28;20398;-72
2022/05/07 03:26:30;;;;;;;19.35;9.88;;;;;;;;;;5050298;28;20288;-72
2022/05/07 03:28:55;;;;;;;13.77;9.32;;;;;;;;;;5043749;28;20033;-72
2022/05/07 03:31:21;;;;;;;18.23;9.60;;;;;;;;;;5048137;28;20470;-72
2022/05/07 03:33:46;;;;;;;15.05;9.52;;;;;;;;;;5052702;28;20044;-72
2022/05/07 03:36:12;;;;;;;15.75;9.00;;;;;;;;;;5049417;28;20574;-71
2022/05/07 03:38:38;;;;;;;14.40;9.05;;;;;;;;;;5051405;28;20036;-73
2022/05/07 03:41:04;;;;;;;17.30;9.77;;;;;;;;;;5019836;28;20510;-73
2022/05/07 03:43:30;;;;;;;14.80;8.73;;;;;;;;;;5034778;28;20792;-72
2022/05/07 03:45:55;;;;;;;16.73;9.13;;;;;;;;;;5045495;28;20037;-72
2022/05/07 03:48:20;;;;;;;16.90;9.43;;;;;;;;;;5071944;28;20040;-71
2022/05/07 03:50:46;;;;;;;15.88;9.27;;;;;;;;;;5073207;28;20278;-72
2022/05/07 03:56:07;;;;;;;15.82;9.27;;;;;;;;;;5060477;28;20340;-71
2022/05/07 03:58:32;;;;;;;18.13;9.52;;;;;;;;;;5057004;28;20050;-71
2022/05/07 04:00:58;;;;;;;17.40;9.35;;;;;;;;;;5057052;28;20041;-72
2022/05/07 04:03:24;;;;;;;15.90;8.95;;;;;;;;;;5062189;28;20036;-71
2022/05/07 04:05:49;;;;;;;16.25;8.80;;;;;;;;;;5043121;28;20044;-72
2022/05/07 04:08:15;;;;;;;20.77;8.98;;;;;;;;;;5062617;28;20033;-72
2022/05/07 04:10:42;;;;;;;20.40;9.48;;;;;;;;;;5042484;28;20167;-72
2022/05/07 04:13:08;;;;;;;14.15;8.60;;;;;;;;;;5062943;28;20119;-71
2022/05/07 04:15:33;;;;;;;12.90;8.75;;;;;;;;;;5034697;28;20548;-73
2022/05/07 04:17:58;;;;;;;15.30;9.15;;;;;;;;;;5050264;28;20087;-72
2022/05/07 04:20:24;;;;;;;22.97;9.73;;;;;;;;;;5050701;28;20029;-72
2022/05/07 04:22:49;;;;;;;21.63;8.60;;;;;;;;;;5047265;28;20120;-71
2022/05/07 04:25:14;;;;;;;12.88;8.60;;;;;;;;;;5040338;28;20383;-70
2022/05/07 04:27:39;;;;;;;14.90;8.40;;;;;;;;;;5030482;28;20055;-73
2022/05/07 04:30:05;;;;;;;17.40;8.73;;;;;;;;;;5050637;28;20398;-72
2022/05/07 04:32:30;;;;;;;16.60;9.45;;;;;;;;;;5032705;28;20037;-72
2022/05/07 04:34:56;;;;;;;17.67;8.50;;;;;;;;;;5041436;28;20572;-73
2022/05/07 04:37:22;;;;;;;15.82;8.35;;;;;;;;;;5031012;28;20044;-72
2022/05/07 04:39:47;;;;;;;12.32;8.20;;;;;;;;;;5049865;28;20112;-71
2022/05/07 04:42:12;;;;;;;15.50;8.25;;;;;;;;;;5022774;28;20487;-71
2022/05/07 04:44:38;;;;;;;13.25;8.25;;;;;;;;;;5045913;28;20042;-72
2022/05/07 04:47:04;;;;;;;13.77;8.05;;;;;;;;;;5042408;28;20037;-72
2022/05/07 04:49:30;;;;;;;16.13;8.65;;;;;;;;;;5054305;28;20383;-71
2022/05/07 04:51:55;;;;;;;24.10;8.95;;;;;;;;;;5052828;28;20297;-72
2022/05/07 04:54:20;;;;;;;13.30;7.97;;;;;;;;;;5053131;28;20037;-72
2022/05/07 04:56:47;;;;;;;11.90;8.15;;;;;;;;;;5034021;28;20053;-71
2022/05/07 04:59:12;;;;;;;17.75;8.48;;;;;;;;;;5033016;28;20048;-72
2022/05/07 05:01:38;;;;;;;16.65;8.75;;;;;;;;;;5056630;28;20067;-70
2022/05/07 05:04:03;;;;;;;15.57;8.67;;;;;;;;;;5051473;28;20112;-73
2022/05/07 05:06:29;;;;;;;16.33;8.68;;;;;;;;;;5046253;28;20039;-71
2022/05/07 05:08:54;;;;;;;17.50;8.10;;;;;;;;;;5051300;28;20037;-71
2022/05/07 05:11:22;;;;;;;19.33;8.38;;;;;;;;;;5049654;28;20302;-72
2022/05/07 05:13:47;;;;;;;14.43;8.50;;;;;;;;;;5045527;28;20032;-73
2022/05/07 05:16:12;;;;;;;18.17;8.10;;;;;;;;;;5032108;28;20036;-72
2022/05/07 05:18:37;;;;;;;21.20;7.88;;;;;;;;;;5043363;28;20832;-72
2022/05/07 05:21:03;;;;;;;15.98;8.35;;;;;;;;;;5051239;28;20111;-73
2022/05/07 05:23:29;;;;;;;16.15;8.02;;;;;;;;;;5046462;28;20061;-73
2022/05/07 05:25:54;;;;;;;12.25;7.85;;;;;;;;;;5049496;28;20068;-74
2022/05/07 05:28:20;;;;;;;19.58;8.45;;;;;;;;;;5053491;28;20498;-73
2022/05/07 05:30:51;;;;;;;14.02;8.40;;;;;;;;;;5061163;28;20144;-73
2022/05/07 05:33:16;;;;;;;74.60;25.30;;;;;;;;;;5015164;28;20727;-72
2022/05/07 05:35:41;;;;;;;18.13;9.07;;;;;;;;;;5042194;28;20096;-73
2022/05/07 05:38:07;;;;;;;16.10;8.80;;;;;;;;;;5047266;28;20115;-75
2022/05/07 05:40:33;;;;;;;18.10;9.13;;;;;;;;;;5054483;28;20032;-75
2022/05/07 05:42:58;;;;;;;14.57;7.50;;;;;;;;;;5061477;28;20095;-75
2022/05/07 05:45:23;;;;;;;15.82;8.32;;;;;;;;;;5040465;28;20776;-76
2022/05/07 05:47:49;;;;;;;16.45;7.93;;;;;;;;;;5044941;28;20602;-74
2022/05/07 05:50:14;;;;;;;16.58;7.90;;;;;;;;;;5033607;28;20038;-74
2022/05/07 05:52:40;;;;;;;13.57;7.85;;;;;;;;;;5051785;28;20428;-74
2022/05/07 05:55:05;;;;;;;15.50;8.33;;;;;;;;;;5031556;28;20047;-73
2022/05/07 05:57:30;;;;;;;13.45;8.45;;;;;;;;;;5051271;28;20269;-73
2022/05/07 05:59:55;;;;;;;16.83;7.90;;;;;;;;;;5062144;28;20082;-73
2022/05/07 06:02:22;;;;;;;20.03;7.90;;;;;;;;;;5057207;28;20335;-72
2022/05/07 06:04:48;;;;;;;15.02;7.82;;;;;;;;;;5052041;28;20032;-74
2022/05/07 06:07:13;;;;;;;19.17;8.52;;;;;;;;;;5050859;28;20032;-74
2022/05/07 06:09:38;;;;;;;17.95;8.70;;;;;;;;;;5047907;28;20518;-75
2022/05/07 06:12:04;;;;;;;17.33;7.50;;;;;;;;;;5051101;28;20532;-74
2022/05/07 06:14:29;;;;;;;11.73;7.40;;;;;;;;;;5052764;28;20289;-73
2022/05/07 06:16:54;;;;;;;12.90;7.83;;;;;;;;;;5042257;28;20044;-73
2022/05/07 06:19:20;;;;;;;15.67;8.43;;;;;;;;;;5034944;28;20368;-72
2022/05/07 06:21:45;;;;;;;14.60;7.40;;;;;;;;;;5052066;28;20624;-71
2022/05/07 06:29:38;;;;;;;13.57;7.75;;;;;;;;;;5050718;28;20033;-70
2022/05/07 06:32:03;;;;;;;14.77;7.67;;;;;;;;;;5052498;28;20040;-72
2022/05/07 06:34:29;;;;;;;16.48;8.20;;;;;;;;;;5064397;28;20348;-70
2022/05/07 06:36:54;;;;;;;18.03;8.47;;;;;;;;;;5049061;28;20064;-71
2022/05/07 06:39:20;;;;;;;16.60;7.78;;;;;;;;;;5047747;28;20267;-69
2022/05/07 06:41:47;;;;;;;16.77;7.18;;;;;;;;;;5039775;28;20045;-70
2022/05/07 06:44:12;;;;;;;13.48;7.35;;;;;;;;;;5020098;28;20046;-69
2022/05/07 06:46:38;;;;;;;11.30;7.07;;;;;;;;;;5052745;28;20020;-69
2022/05/07 06:49:03;;;;;;;12.93;7.47;;;;;;;;;;5051805;28;20026;-69
2022/05/07 06:51:28;;;;;;;17.83;7.27;;;;;;;;;;5048232;28;20043;-69
2022/05/07 06:53:53;;;;;;;10.85;6.15;;;;;;;;;;5076791;28;20325;-69
2022/05/07 06:56:19;;;;;;;14.37;7.00;;;;;;;;;;5065437;28;20032;-70
2022/05/07 06:58:44;;;;;;;9.80;6.35;;;;;;;;;;5054449;28;20322;-70
2022/05/07 07:01:09;;;;;;;13.93;6.30;;;;;;;;;;5035010;28;20069;-71
2022/05/07 07:03:36;;;;;;;9.00;6.10;;;;;;;;;;5032976;28;20041;-71
2022/05/07 07:06:02;;;;;;;13.45;6.68;;;;;;;;;;5034755;28;20464;-69
2022/05/07 07:08:29;;;;;;;14.63;6.53;;;;;;;;;;5046009;28;20065;-69
2022/05/07 07:10:54;;;;;;;14.73;7.05;;;;;;;;;;5044856;28;20029;-72
2022/05/07 07:13:20;;;;;;;13.85;6.30;;;;;;;;;;5039290;28;20029;-70
2022/05/07 07:15:45;;;;;;;18.50;6.10;;;;;;;;;;5032459;28;20046;-72
2022/05/07 07:18:11;;;;;;;13.68;6.20;;;;;;;;;;5027459;28;20045;-69
2022/05/07 07:20:39;;;;;;;10.45;5.70;;;;;;;;;;5012439;28;20083;-70
2022/05/07 07:23:05;;;;;;;14.20;6.80;;;;;;;;;;5013160;28;20042;-69
2022/05/07 07:25:30;;;;;;;10.98;5.90;;;;;;;;;;5018070;28;20506;-71
2022/05/07 07:27:56;;;;;;;12.27;6.00;;;;;;;;;;5031710;28;20041;-70
2022/05/07 07:30:21;;;;;;;12.27;5.38;;;;;;;;;;5025046;28;20041;-70
2022/05/07 07:32:46;;;;;;;12.97;5.60;;;;;;;16.98;nan;101011.94;5016322;28;20045;-71
2022/05/07 07:35:11;;;;;;;11.20;4.95;;;;;;;;;;5036608;28;20488;-71
2022/05/07 07:37:37;;;;;;;8.83;3.70;;;;;;;;;;5012957;28;20030;-71
2022/05/07 07:40:04;;;;;;;11.57;4.43;;;;;;;;;;5027743;28;20760;-70
2022/05/07 07:42:30;;;;;;;10.73;3.92;;;;;;;;;;5013569;28;20038;-71
2022/05/07 07:47:59;;;;;;;7.90;3.45;;;;;;;;;;5031418;28;20072;-71
2022/05/07 07:50:27;;;;;;;10.45;3.60;;;;;;;;;;5029066;28;20029;-72
2022/05/07 07:52:53;;;;;;;8.10;3.70;;;;;;;;;;5029464;28;20155;-71
2022/05/07 07:55:18;;;;;;;7.97;3.40;;;;;;;;;;5028852;28;20037;-71
2022/05/07 07:57:44;;;;;;;6.10;3.58;;;;;;;;;;5029655;28;20172;-71
2022/05/07 08:00:09;;;;;;;7.67;3.70;;;;;;;;;;5048788;28;20084;-71
2022/05/07 08:02:34;;;;;;;9.00;3.35;;;;;;;;;;5047105;28;20656;-71
2022/05/07 08:05:00;;;;;;;6.43;3.07;;;;;;;;;;5045608;28;20083;-71
2022/05/07 08:12:52;;;;;;;9.70;3.47;;;;;;;;;;5047159;28;20029;-70
2022/05/07 08:15:18;;;;;;;5.97;3.00;;;;;;;;;;5045039;28;20120;-71
2022/05/07 08:17:43;;;;;;;6.80;3.30;;;;;;;;;;5048420;28;20286;-71
2022/05/07 08:20:09;;;;;;;7.60;3.50;;;;;;;;;;5050907;28;20738;-70
2022/05/07 08:22:34;;;;;;;7.03;3.15;;;;;;;;;;5051198;28;20293;-71
2022/05/07 08:25:01;;;;;;;6.00;3.10;;;;;;;;;;5039500;28;20033;-70
2022/05/07 08:27:26;;;;;;;8.73;3.33;;;;;;;;;;5053835;28;20278;-70
2022/05/07 08:29:54;;;;;;;7.07;3.10;;;;;;;;;;5054554;28;20066;-70
2022/05/07 08:32:20;;;;;;;8.63;3.20;;;;;;;18.62;nan;100991.53;5052168;28;20281;-70
2022/05/07 08:34:45;;;;;;;9.80;3.30;;;;;;;18.70;nan;101049.72;5039810;28;20071;-69
2022/05/07 08:37:10;;;;;;;6.78;3.20;;;;;;;;;;5016859;28;20032;-70
2022/05/07 08:39:36;;;;;;;6.33;3.00;;;;;;;18.71;nan;101051.31;5052108;28;20044;-71
2022/05/07 08:42:02;;;;;;;7.35;3.28;;;;;;;;;;5054504;28;20045;-70
2022/05/07 08:44:29;;;;;;;4.88;3.08;;;;;;;18.77;nan;101002.28;5024894;28;20392;-70
2022/05/07 08:46:54;;;;;;;10.48;3.10;;;;;;;;;;5036796;28;20033;-71
2022/05/07 08:49:20;;;;;;;7.07;3.35;;;;;;;;;;5049406;28;20083;-71
2022/05/07 08:51:47;;;;;;;9.75;3.08;;;;;;;;;;5049362;28;20045;-71
2022/05/07 08:54:13;;;;;;;6.93;3.13;;;;;;;18.92;nan;101018.31;5035389;28;20068;-70
2022/05/07 08:56:38;;;;;;;12.55;3.20;;;;;;;18.84;nan;101015.34;5049157;28;20479;-71
2022/05/07 08:59:03;;;;;;;9.90;3.25;;;;;;;;;;5052547;28;20049;-71
2022/05/07 09:01:29;;;;;;;12.07;3.50;;;;;;;18.95;nan;101011.63;5054159;28;20060;-71
2022/05/07 09:03:54;;;;;;;11.65;3.60;;;;;;;18.94;nan;101049.25;5051808;28;20278;-71
2022/05/07 09:06:26;;;;;;;4.13;2.90;;;;;;;18.97;nan;101052.19;5054306;28;20029;-71
2022/05/07 09:08:52;;;;;;;11.90;3.55;;;;;;;;;;5057295;28;20029;-71
2022/05/07 09:11:19;;;;;;;7.88;3.15;;;;;;;19.03;nan;101020.97;5052322;28;20064;-70
2022/05/07 09:13:46;;;;;;;9.25;3.15;;;;;;;19.10;nan;101016.97;5045989;28;20033;-72
2022/05/07 09:16:11;;;;;;;6.78;3.35;;;;;;;;;;5063371;28;20047;-71
2022/05/07 09:18:36;;;;;;;7.53;3.90;;;;;;;;;;5036613;28;20032;-72
2022/05/07 09:21:25;;;;;;;9.38;3.83;;;;;;;;;;5031813;28;20276;-72
2022/05/07 09:24:06;;;;;;;6.00;3.70;;;;;;;19.11;nan;101010.56;5052306;28;20569;-72
2022/05/07 09:26:37;;;;;;;12.35;3.80;;;;;;;;;;5053404;28;20061;-71
2022/05/07 09:29:07;;;;;;;15.55;4.20;;;;;;;19.19;nan;101000.44;5051333;28;20082;-71
2022/05/07 09:31:34;;;;;;;8.35;4.10;;;;;;;19.25;nan;101004.69;5052470;28;20052;-72
2022/05/07 09:37:21;;;;;;;8.15;3.90;;;;;;;19.29;nan;101011.88;5035664;28;20350;-73
2022/05/07 09:39:48;;;;;;;14.05;3.78;;;;;;;19.33;nan;101103.75;5051635;28;20033;-73
2022/05/07 09:42:18;;;;;;;7.40;3.33;;;;;;;19.39;nan;100997.72;5033555;28;20040;-73
2022/05/07 09:44:45;;;;;;;6.38;3.10;;;;;;;19.41;nan;100989.47;5023484;28;20033;-73
2022/05/07 09:47:12;;;;;;;13.93;3.33;;;;;;;19.45;nan;101006.56;5060823;28;20038;-75
2022/05/07 09:50:19;;;;;;;10.52;3.22;;;;;;;19.49;nan;100986.22;5053622;28;20479;-75
2022/05/07 09:52:27;;;;;;;10.32;3.72;;;;;;;19.55;nan;100995.84;5052112;28;20033;-76
2022/05/07 09:57:38;;;;;;;7.35;4.10;;;;;;;19.61;nan;100957.38;5049091;28;20474;-76
2022/05/07 10:00:07;;;;;;;8.27;3.92;;;;;;;19.67;nan;100980.31;5055813;28;20077;-75
2022/05/07 10:02:42;;;;;;;5.05;3.75;;;;;;;19.73;nan;100981.16;5042188;28;20052;-74
2022/05/07 10:05:52;;;;;;;9.05;4.10;;;;;;;19.74;nan;100926.63;5048545;28;20048;-76
2022/05/07 10:08:35;;;;;;;9.13;3.75;;;;;;;19.74;nan;100964.81;5051920;28;20014;-76
2022/05/07 10:11:03;;;;;;;8.80;3.83;;;;;;;19.82;nan;100966.13;5057349;28;20041;-73
2022/05/07 10:13:28;;;;;;;12.25;4.07;;;;;;;19.88;nan;100974.94;5053726;28;20071;-73
2022/05/07 10:16:01;;;;;;;9.02;3.83;;;;;;;19.96;nan;100969.81;5055504;28;20057;-75
2022/05/07 10:18:41;;;;;;;16.65;3.85;;;;;;;19.99;nan;100939.06;5049916;28;20074;-74
2022/05/07 10:21:17;;;;;;;11.63;4.50;;;;;;;20.03;nan;100953.50;5042646;28;20033;-75
2022/05/07 10:23:54;;;;;;;10.05;4.40;;;;;;;20.06;nan;101010.97;5038355;28;20040;-75
2022/05/07 10:26:36;;;;;;;9.60;4.82;;;;;;;20.08;nan;101009.59;5064861;28;20038;-74
2022/05/07 10:29:03;;;;;;;9.23;4.03;;;;;;;;;;5038493;28;20073;-73
2022/05/07 10:31:29;;;;;;;10.63;3.97;;;;;;;20.10;nan;100977.25;5027434;28;20034;-71
2022/05/07 10:33:55;;;;;;;5.53;3.33;;;;;;;20.24;nan;100914.09;5025543;28;20038;-73
2022/05/07 10:36:21;;;;;;;7.38;3.30;;;;;;;20.32;nan;100950.94;5030132;28;20037;-73
2022/05/07 10:38:47;;;;;;;8.75;3.33;;;;;;;20.45;nan;100952.22;5030862;28;20044;-72
2022/05/07 10:41:14;;;;;;;3.97;2.75;;;;;;;20.54;nan;100947.88;5031656;28;20033;-71
2022/05/07 10:43:42;;;;;;;10.43;2.90;;;;;;;;;;5044787;28;20392;-71
2022/05/07 10:46:21;;;;;;;9.18;3.40;;;;;;;20.64;nan;100936.31;5019185;28;20128;-72
2022/05/07 10:48:53;;;;;;;5.65;3.28;;;;;;;20.69;nan;100940.84;5026886;28;20037;-72
2022/05/07 10:51:31;;;;;;;7.63;3.40;;;;;;;20.70;nan;100921.81;5039085;28;20139;-71
2022/05/07 10:54:02;;;;;;;6.10;3.53;;;;;;;;;;5057183;28;20033;-72
2022/05/07 10:56:34;;;;;;;7.70;3.63;;;;;;;20.72;nan;100903.59;5030936;28;20400;-71
2022/05/07 10:59:04;;;;;;;9.43;3.50;;;;;;;20.80;nan;100913.69;5046973;28;20202;-70
2022/05/07 11:01:31;;;;;;;13.30;4.00;;;;;;;20.92;nan;100971.44;5051795;28;20079;-72
2022/05/07 11:04:13;;;;;;;5.93;3.13;;;;;;;20.99;nan;100970.03;5026822;28;20030;-71
2022/05/07 11:06:47;;;;;;;5.97;3.58;;;;;;;21.04;nan;100932.47;5047714;28;20148;-72
2022/05/07 11:09:26;;;;;;;9.25;3.60;;;;;;;21.04;nan;100961.94;5043510;28;20037;-71
2022/05/07 11:11:54;;;;;;;8.98;3.53;;;;;;;21.09;nan;100864.69;5031077;28;20084;-69
2022/05/07 11:14:24;;;;;;;14.52;3.58;;;;;;;21.17;nan;100932.94;5031096;28;20032;-71
2022/05/07 11:16:51;;;;;;;8.20;3.60;;;;;;;21.18;nan;100880.94;5022979;28;20077;-70
2022/05/07 11:19:31;;;;;;;8.35;3.80;;;;;;;21.37;nan;100871.09;5029947;28;20065;-70
2022/05/07 11:21:59;;;;;;;6.70;3.97;;;;;;;21.42;nan;100907.78;5028208;28;20045;-71
2022/05/07 11:24:26;;;;;;;6.53;3.97;;;;;;;21.59;nan;100912.69;5028756;28;20526;-73
2022/05/07 11:26:56;;;;;;;9.93;3.75;;;;;;;21.60;nan;100917.75;5035622;28;20032;-72
2022/05/07 11:29:23;;;;;;;8.02;3.75;;;;;;;21.51;nan;100881.94;5038597;28;20044;-73
2022/05/07 11:31:56;;;;;;;8.23;3.72;;;;;;;21.64;nan;100909.94;5031321;28;20037;-72
2022/05/07 11:34:32;;;;;;;5.38;4.00;;;;;;;21.62;nan;100882.63;5040197;28;20550;-70
2022/05/07 11:37:11;;;;;;;7.25;3.55;;;;;;;21.79;nan;100898.25;5041827;28;20052;-71
2022/05/07 11:39:56;;;;;;;5.10;3.00;;;;;;;21.88;nan;100900.00;5029362;28;20099;-71
2022/05/07 11:42:25;;;;;;;10.18;3.35;;;;;;;21.87;nan;100879.63;5042099;28;20048;-71
2022/05/07 11:48:04;;;;;;;5.88;3.47;;;;;;;22.15;nan;100887.81;5025064;28;20041;-71
2022/05/07 11:50:41;;;;;;;7.03;2.95;;;;;;;22.25;nan;100941.34;5041344;28;20491;-71
2022/05/07 11:53:18;;;;;;;6.30;2.95;;;;;;;22.23;nan;100937.38;5026471;28;20130;-71
2022/05/07 11:55:45;;;;;;;8.25;3.10;;;;;;;22.40;nan;100837.56;5026280;28;20037;-72
2022/05/07 11:58:22;;;;;;;10.30;3.03;;;;;;;22.54;nan;100884.03;5034952;28;20413;-72
2022/05/07 12:00:49;;;;;;;11.27;3.20;;;;;;;22.59;nan;100819.53;5043253;28;20551;-71
2022/05/07 12:03:19;;;;;;;7.18;3.38;;;;;;;22.72;nan;100872.47;5058337;28;20025;-72
2022/05/07 12:05:47;;;;;;;6.68;3.40;;;;;;;22.70;nan;100847.00;5052251;28;20073;-71
2022/05/07 12:08:20;;;;;;;10.02;4.30;;;;;;;22.83;nan;100854.28;5050146;28;20067;-71
2022/05/07 12:10:49;;;;;;;6.88;3.50;;;;;;;22.89;nan;100857.66;5049708;28;20050;-72
2022/05/07 12:13:15;;;;;;;9.65;3.30;;;;;;;23.00;nan;100850.25;5047580;28;20022;-72
2022/05/07 12:18:27;;;;;;;8.43;3.38;;;;;;;23.25;nan;100851.63;5047495;28;20032;-72
2022/05/07 12:20:54;;;;;;;6.05;3.17;;;;;;;23.31;nan;100823.56;5048070;28;20076;-73
2022/05/07 12:31:34;;;;;;;8.82;3.65;;;;;;;23.48;nan;100796.88;5050001;28;20033;-71
2022/05/07 12:33:59;;;;;;;7.53;3.30;;;;;;;23.47;nan;100834.81;5049303;28;20033;-70
2022/05/07 12:36:26;;;;;;;6.63;3.60;;;;;;;23.53;nan;100861.28;5050811;28;20037;-72
2022/05/07 12:38:53;;;;;;;9.35;3.00;;;;;;;23.56;nan;100838.41;5043285;28;20623;-71
2022/05/07 12:41:19;;;;;;;6.63;3.00;;;;;;;23.55;nan;100829.50;5034736;28;20085;-70
2022/05/07 12:43:44;;;;;;;7.07;3.30;;;;;;;23.65;nan;100808.88;5033298;28;20029;-71
2022/05/07 12:46:10;;;;;;;8.82;3.63;;;;;;;23.75;nan;100820.25;5038855;28;20052;-76
2022/05/07 12:48:36;;;;;;;9.48;3.15;;;;;;;23.77;nan;100790.34;5051000;28;20032;-76
2022/05/07 12:51:01;;;;;;;7.90;3.40;;;;;;;23.75;nan;100804.13;5048554;28;20036;-76
2022/05/07 12:53:27;;;;;;;10.20;3.50;;;;;;;23.83;nan;100810.66;5035426;28;20029;-73
2022/05/07 12:55:52;;;;;;;12.02;3.63;;;;;;;;;;5013981;28;20040;-74
2022/05/07 12:58:17;;;;;;;9.23;3.23;;;;;;;23.86;nan;100801.97;5028868;28;20041;-74
2022/05/07 13:00:43;;;;;;;7.68;3.22;;;;;;;23.88;nan;100807.84;5015455;28;20838;-74
2022/05/07 13:03:09;;;;;;;4.13;3.17;;;;;;;23.84;nan;100793.41;5027200;28;20041;-74
2022/05/07 13:05:36;;;;;;;5.90;3.20;;;;;;;23.90;nan;100799.50;5029572;28;20041;-74
2022/05/07 13:08:03;;;;;;;7.88;3.40;;;;;;;23.86;nan;100804.66;5038187;28;20032;-76
2022/05/07 13:10:30;;;;;;;8.13;3.05;;;;;;;23.85;nan;100797.72;5034873;28;20033;-72
2022/05/07 13:12:56;;;;;;;7.80;3.58;;;;;;;;;;5034316;28;20037;-73
2022/05/07 13:15:21;;;;;;;7.15;2.92;;;;;;;23.88;nan;100805.16;5045593;28;20037;-74
2022/05/07 13:17:47;;;;;;;5.22;3.67;;;;;;;23.87;nan;100797.38;5044704;28;20044;-75
2022/05/07 13:20:12;;;;;;;7.97;3.20;;;;;;;23.85;nan;100776.19;5045259;28;20111;-75
2022/05/07 13:22:38;;;;;;;13.63;3.45;;;;;;;23.86;nan;100791.22;5049873;28;20048;-74
2022/05/07 13:25:04;;;;;;;4.97;3.15;;;;;;;;;;5033083;28;20120;-73
2022/05/07 13:27:30;;;;;;;5.20;3.40;;;;;;;23.91;nan;100825.28;5034552;28;20033;-74
2022/05/07 13:29:56;;;;;;;7.75;3.30;;;;;;;23.93;nan;100735.09;5051187;28;20048;-72
2022/05/07 13:32:22;;;;;;;5.43;3.15;;;;;;;23.93;nan;100783.53;5035562;28;20479;-71
2022/05/07 13:34:47;;;;;;;9.00;3.20;;;;;;;23.91;nan;100760.72;5054036;28;20045;-73
2022/05/07 13:37:13;;;;;;;9.95;3.25;;;;;;;23.89;nan;100774.47;5053258;28;20033;-72
2022/05/07 13:39:38;;;;;;;5.43;3.08;;;;;;;23.83;nan;100834.88;5050361;28;20082;-72
2022/05/07 13:42:04;;;;;;;8.68;3.08;;;;;;;23.85;nan;100760.06;5047342;28;20064;-73
2022/05/07 13:44:30;;;;;;;8.10;3.58;;;;;;;;;;5042979;28;20076;-73
2022/05/07 13:46:55;;;;;;;6.53;3.27;;;;;;;23.86;nan;100769.72;5052416;28;20032;-75
2022/05/07 13:49:21;;;;;;;6.60;3.63;;;;;;;23.66;nan;100717.19;5037551;28;20275;-69
2022/05/07 13:51:46;;;;;;;6.60;3.55;;;;;;;23.73;nan;100765.97;5060453;28;20033;-67
2022/05/07 13:54:12;;;;;;;7.43;3.00;;;;;;;23.68;nan;100743.75;5069306;28;20021;-67
2022/05/07 13:56:38;;;;;;;7.20;3.63;;;;;;;23.71;nan;100768.13;5066722;28;20055;-66
2022/05/07 13:59:03;;;;;;;10.80;3.47;;;;;;;23.43;nan;100753.97;5053057;28;20112;-68
2022/05/07 14:01:29;;;;;;;6.43;3.70;;;;;;;23.46;nan;100766.81;5050341;28;20025;-69
2022/05/07 14:03:55;;;;;;;9.82;3.70;;;;;;;23.44;nan;100749.41;5051971;28;20025;-69
2022/05/07 14:06:22;;;;;;;7.80;3.40;;;;;;;23.40;nan;100746.53;5053872;28;20318;-68